Time;durP1;ratioP1;P1;durP2;ratioP2;P2;SDS_P1;SDS_P2;PMS_P1;PMS_P2;Temp;Humidity;BMP_temperature;BMP_pressure;BME280_temperature;BME280_humidity;BME280_pressure;Samples;Min_cycle;Max_cycle;Signal;HPM_P1;HPM_P2
2023/03/09 00:00:11;;;;;;;;;;;;;;;13.03;69.14;94727.69;5002335;28;19913;-76
2023/03/09 00:02:36;;;;;;;;;;;;;;;12.80;69.57;94711.59;4991506;28;19935;-77
2023/03/09 00:05:02;;;;;;;;;;;;;;;13.13;68.71;94729.16;4992440;28;19920;-76
2023/03/09 00:07:30;;;;;;;;;;;;;;;13.00;68.83;94738.75;4974204;28;19924;-76
2023/03/09 00:09:56;;;;;;;;;;;;;;;13.09;68.04;94730.84;4995243;28;19971;-76
2023/03/09 00:12:22;;;;;;;;;;;;;;;13.00;68.50;94735.41;4992184;28;19917;-75
2023/03/09 00:14:50;;;;;;;;;;;;;;;12.99;67.99;94732.03;4990048;28;20333;-76
2023/03/09 00:17:16;;;;;;;;;;;;;;;12.90;68.27;94734.72;5013365;28;19917;-76
2023/03/09 00:19:41;;;;;;;;;;;;;;;12.73;69.14;94740.03;5007584;28;20436;-76
2023/03/09 00:22:06;;;;;;;;;;;;;;;12.99;68.49;94747.69;4990361;28;19956;-76
2023/03/09 00:24:31;;;;;;;;;;;;;;;12.90;68.16;94745.16;4985500;28;19940;-76
2023/03/09 00:26:58;;;;;;;;;;;;;;;13.00;68.33;94757.06;5007303;28;19975;-77
2023/03/09 00:29:24;;;;;;;;;;;;;;;12.99;68.15;94757.38;4988801;28;19921;-77
2023/03/09 00:31:49;;;;;;;;;;;;;;;12.95;68.17;94756.47;4985159;28;20527;-77
2023/03/09 00:34:16;;;;;;;;;;;;;;;12.89;67.94;94758.53;4967345;28;19921;-77
2023/03/09 00:36:41;;;;;;;;;;;;;;;12.85;68.26;94762.84;5001755;28;19928;-75
2023/03/09 00:39:06;;;;;;;;;;;;;;;13.00;68.02;94753.69;5008163;28;20336;-77
2023/03/09 00:41:32;;;;;;;;;;;;;;;12.90;67.89;94760.81;5008694;28;19917;-78
2023/03/09 00:43:57;;;;;;;;;;;;;;;12.79;68.28;94754.44;4990836;28;19920;-76
2023/03/09 00:46:23;;;;;;;;;;;;;;;12.96;67.60;94755.41;4989259;28;19955;-77
2023/03/09 00:48:48;;;;;;;;;;;;;;;12.78;68.19;94755.50;4992555;28;19913;-76
2023/03/09 00:51:13;;;;;;;;;;;;;;;12.62;68.92;94752.69;5004373;28;20672;-76
2023/03/09 00:53:39;;;;;;;;;;;;;;;12.86;68.32;94740.88;4990183;28;19913;-77
2023/03/09 00:56:05;;;;;;;;;;;;;;;12.83;68.16;94738.91;5005884;28;19917;-76
2023/03/09 00:58:31;;;;;;;;;;;;;;;12.80;68.70;94735.09;4990475;28;19918;-77
2023/03/09 01:00:56;;;;;;;;;;;;;;;12.68;69.39;94742.81;5023211;28;20427;-76
2023/03/09 01:03:21;;;;;;;;;;;;;;;12.57;69.34;94728.63;5007821;28;19921;-77
2023/03/09 01:05:46;;;;;;;;;;;;;;;12.47;70.34;94738.34;4979426;28;19917;-77
2023/03/09 01:08:12;;;;;;;;;;;;;;;12.78;69.41;94731.25;4975831;28;19959;-76
2023/03/09 01:10:37;;;;;;;;;;;;;;;12.87;69.41;94732.72;5005889;28;20297;-76
2023/03/09 01:13:03;;;;;;;;;;;;;;;12.78;69.40;94726.03;4996903;28;19921;-75
2023/03/09 01:15:28;;;;;;;;;;;;;;;12.92;69.35;94732.53;5004150;28;19921;-77
2023/03/09 01:17:55;;;;;;;;;;;;;;;12.89;69.33;94742.84;4973541;28;20389;-77
2023/03/09 01:20:21;;;;;;;;;;;;;;;12.96;69.16;94747.56;4989218;28;19976;-77
2023/03/09 01:22:46;;;;;;;;;;;;;;;13.03;68.52;94750.44;5018086;28;20289;-76
2023/03/09 01:25:11;;;;;;;;;;;;;;;12.49;70.62;94743.25;5008202;28;19971;-76
2023/03/09 01:27:37;;;;;;;;;;;;;;;12.73;69.79;94751.25;5006911;28;19925;-77
2023/03/09 01:30:02;;;;;;;;;;;;;;;12.67;70.01;94768.19;4974574;28;20379;-75
2023/03/09 01:32:28;;;;;;;;;;;;;;;12.56;70.38;94761.81;4972514;28;19914;-76
2023/03/09 01:34:53;;;;;;;;;;;;;;;12.84;69.34;94762.09;4965205;28;19967;-77
2023/03/09 01:37:18;;;;;;;;;;;;;;;12.67;69.81;94767.41;4989016;28;20293;-76
2023/03/09 01:39:44;;;;;;;;;;;;;;;12.83;69.63;94776.22;5007119;28;19944;-76
2023/03/09 01:42:09;;;;;;;;;;;;;;;12.50;70.48;94776.13;4986952;28;20044;-78
2023/03/09 01:44:35;;;;;;;;;;;;;;;12.67;70.20;94788.31;5006609;28;19939;-77
2023/03/09 01:47:00;;;;;;;;;;;;;;;12.65;70.16;94800.91;4991621;28;19917;-77
2023/03/09 01:49:25;;;;;;;;;;;;;;;12.61;70.09;94800.00;5006835;28;19917;-76
2023/03/09 01:51:59;;;;;;;;;;;;;;;12.46;70.59;94817.75;5006051;28;19924;-75
2023/03/09 01:54:26;;;;;;;;;;;;;;;12.62;69.85;94833.63;4990867;28;20506;-75
2023/03/09 01:56:53;;;;;;;;;;;;;;;12.48;70.37;94835.69;4986095;28;19979;-75
2023/03/09 01:59:18;;;;;;;;;;;;;;;12.63;69.76;94852.66;5003081;28;19921;-77
2023/03/09 02:01:43;;;;;;;;;;;;;;;12.81;69.16;94861.94;5024453;22;19928;-83
2023/03/09 02:04:11;;;;;;;;;;;;;;;12.83;69.24;94851.19;5001304;28;20372;-84
2023/03/09 02:06:36;;;;;;;;;;;;;;;12.53;69.21;94856.41;4994658;28;20347;-81
2023/03/09 02:09:01;;;;;;;;;;;;;;;12.54;69.10;94873.56;5011119;28;19996;-82
2023/03/09 02:11:27;;;;;;;;;;;;;;;12.76;68.33;94875.19;5025823;28;19975;-82
2023/03/09 02:13:53;;;;;;;;;;;;;;;12.67;68.31;94880.44;5013386;28;19960;-83
2023/03/09 02:16:18;;;;;;;;;;;;;;;12.59;68.29;94875.25;4986953;28;19914;-82
2023/03/09 02:18:43;;;;;;;;;;;;;;;12.79;67.77;94887.63;5021934;28;20288;-84
2023/03/09 02:21:28;;;;;;;;;;;;;;;12.59;68.43;94890.91;5010137;28;20438;-82
2023/03/09 02:23:56;;;;;;;;;;;;;;;12.46;68.59;94900.50;5025459;28;19946;-81
2023/03/09 02:26:27;;;;;;;;;;;;;;;12.34;69.13;94906.34;5009935;28;19959;-81
2023/03/09 02:28:53;;;;;;;;;;;;;;;12.62;68.22;94901.50;5010832;28;19971;-83
2023/03/09 02:31:18;;;;;;;;;;;;;;;12.51;68.55;94911.53;5027128;28;19952;-81
2023/03/09 02:33:43;;;;;;;;;;;;;;;12.51;68.37;94914.13;5002498;28;19913;-81
2023/03/09 02:36:08;;;;;;;;;;;;;;;12.28;68.77;94924.00;5027305;28;19913;-83
2023/03/09 02:38:34;;;;;;;;;;;;;;;12.09;69.65;94921.72;5005845;28;19944;-83
2023/03/09 02:41:00;;;;;;;;;;;;;;;11.90;69.96;94940.28;5006416;28;19923;-82
2023/03/09 02:43:30;;;;;;;;;;;;;;;12.38;68.61;94950.88;4991887;28;19921;-81
2023/03/09 02:45:55;;;;;;;;;;;;;;;12.14;69.05;94937.22;5010229;28;19917;-82
2023/03/09 02:48:21;;;;;;;;;;;;;;;12.28;69.04;94952.69;4988782;28;20407;-83
2023/03/09 02:50:46;;;;;;;;;;;;;;;12.21;69.49;94941.22;5028469;28;19924;-82
2023/03/09 02:53:11;;;;;;;;;;;;;;;11.99;69.72;94948.91;5011539;28;19913;-83
2023/03/09 02:55:36;;;;;;;;;;;;;;;11.89;69.85;94948.41;5029432;28;19917;-84
2023/03/09 02:58:02;;;;;;;;;;;;;;;12.21;69.47;94962.09;5028460;28;19912;-83
2023/03/09 03:00:27;;;;;;;;;;;;;;;12.28;69.16;94970.22;5029994;28;20335;-83
2023/03/09 03:02:52;;;;;;;;;;;;;;;12.07;69.44;94957.03;5001263;28;20368;-85
2023/03/09 03:05:18;;;;;;;;;;;;;;;12.34;68.56;94976.81;5007492;28;20004;-82
2023/03/09 03:07:43;;;;;;;;;;;;;;;12.18;68.95;94986.94;4976820;28;20376;-82
2023/03/09 03:10:09;;;;;;;;;;;;;;;12.26;69.05;94996.59;4976161;28;20364;-83
2023/03/09 03:12:34;;;;;;;;;;;;;;;11.92;69.64;94989.56;4978286;28;19920;-82
2023/03/09 03:14:59;;;;;;;;;;;;;;;12.14;69.50;95007.66;4992575;28;19913;-83
2023/03/09 03:17:25;;;;;;;;;;;;;;;12.16;69.41;95013.31;4994490;28;19917;-87
2023/03/09 03:19:51;;;;;;;;;;;;;;;12.08;69.16;95024.56;4994015;28;19928;-81
2023/03/09 03:22:16;;;;;;;;;;;;;;;11.83;70.21;95026.03;4977444;28;19928;-82
2023/03/09 03:24:42;;;;;;;;;;;;;;;12.10;69.62;95034.69;4976407;28;20281;-84
2023/03/09 03:27:07;;;;;;;;;;;;;;;12.32;68.86;95038.97;4993319;28;19913;-82
2023/03/09 03:29:32;;;;;;;;;;;;;;;12.17;69.25;95030.53;4973666;28;19914;-83
2023/03/09 03:31:58;;;;;;;;;;;;;;;12.19;68.92;95045.88;5002723;28;20416;-82
2023/03/09 03:34:23;;;;;;;;;;;;;;;12.16;69.21;95047.25;4989581;28;19918;-82
2023/03/09 03:36:48;;;;;;;;;;;;;;;12.27;68.96;95063.38;5007410;28;19925;-81
2023/03/09 03:39:14;;;;;;;;;;;;;;;12.15;69.64;95065.84;4991676;28;19999;-81
2023/03/09 03:41:39;;;;;;;;;;;;;;;12.43;68.80;95061.06;4992622;28;19925;-83
2023/03/09 03:44:04;;;;;;;;;;;;;;;12.30;68.92;95068.00;4973864;28;19920;-80
2023/03/09 03:46:30;;;;;;;;;;;;;;;12.00;69.67;95069.66;4976478;28;19913;-82
2023/03/09 03:48:55;;;;;;;;;;;;;;;12.20;69.08;95075.34;5004586;28;20353;-81
2023/03/09 03:51:20;;;;;;;;;;;;;;;12.35;68.55;95087.94;4971601;28;20333;-82
2023/03/09 03:53:46;;;;;;;;;;;;;;;12.32;68.40;95088.53;5002121;28;19963;-82
2023/03/09 03:56:11;;;;;;;;;;;;;;;12.33;68.58;95092.69;4975744;28;19927;-83
2023/03/09 03:58:36;;;;;;;;;;;;;;;12.16;69.16;95094.19;4992976;28;20272;-81
2023/03/09 04:01:02;;;;;;;;;;;;;;;12.28;68.58;95105.88;4989911;28;20348;-82
2023/03/09 04:03:27;;;;;;;;;;;;;;;12.27;68.68;95115.56;5005784;28;20017;-81
2023/03/09 04:05:52;;;;;;;;;;;;;;;12.36;68.23;95105.13;4973674;28;19913;-82
2023/03/09 04:08:18;;;;;;;;;;;;;;;12.24;68.36;95104.97;4991492;28;20380;-80
2023/03/09 04:10:43;;;;;;;;;;;;;;;11.98;69.06;95116.88;4992393;28;19921;-83
2023/03/09 04:13:08;;;;;;;;;;;;;;;12.31;68.00;95126.91;4992527;28;19913;-81
2023/03/09 04:15:34;;;;;;;;;;;;;;;12.13;68.29;95133.97;4973947;28;19913;-83
2023/03/09 04:17:59;;;;;;;;;;;;;;;12.41;67.64;95131.09;4991326;28;19920;-81
2023/03/09 04:20:24;;;;;;;;;;;;;;;12.04;68.78;95143.59;4969095;28;20280;-84
2023/03/09 04:22:50;;;;;;;;;;;;;;;12.15;68.57;95136.28;4991925;28;20436;-82
2023/03/09 04:25:15;;;;;;;;;;;;;;;12.32;67.88;95149.34;4975365;28;19949;-82
2023/03/09 04:27:41;;;;;;;;;;;;;;;11.72;68.81;95148.09;4976768;28;20432;-80
2023/03/09 04:30:06;;;;;;;;;;;;;;;12.07;68.33;95157.88;4992840;28;19920;-81
2023/03/09 04:32:32;;;;;;;;;;;;;;;11.94;68.63;95168.13;4971583;28;19919;-80
2023/03/09 04:34:57;;;;;;;;;;;;;;;12.09;67.91;95166.94;5000925;28;19921;-82
2023/03/09 04:37:22;;;;;;;;;;;;;;;12.02;68.39;95171.81;5005833;28;19913;-80
2023/03/09 04:39:48;;;;;;;;;;;;;;;12.16;67.50;95175.06;4998988;28;19964;-78
2023/03/09 04:42:13;;;;;;;;;;;;;;;12.00;68.16;95176.56;4991962;28;19917;-80
2023/03/09 04:44:38;;;;;;;;;;;;;;;12.16;67.85;95180.28;4971422;28;20324;-80
2023/03/09 04:47:03;;;;;;;;;;;;;;;12.12;67.98;95187.19;4992269;28;19917;-80
2023/03/09 04:49:29;;;;;;;;;;;;;;;12.16;67.80;95195.94;4971472;28;19914;-80
2023/03/09 04:51:55;;;;;;;;;;;;;;;12.12;67.87;95210.69;4992945;28;20022;-81
2023/03/09 04:54:20;;;;;;;;;;;;;;;12.21;67.79;95209.94;4969913;28;19920;-80
2023/03/09 04:56:45;;;;;;;;;;;;;;;12.42;66.71;95213.50;4990774;28;20130;-79
2023/03/09 04:59:11;;;;;;;;;;;;;;;12.17;67.97;95210.53;4990828;28;20007;-82
2023/03/09 05:01:36;;;;;;;;;;;;;;;12.38;66.41;95209.97;5008723;28;20543;-79
2023/03/09 05:04:01;;;;;;;;;;;;;;;12.40;66.82;95210.44;5006923;28;19953;-80
2023/03/09 05:06:26;;;;;;;;;;;;;;;12.36;67.30;95217.34;5015747;28;19970;-79
2023/03/09 05:08:52;;;;;;;;;;;;;;;12.45;66.94;95215.50;4987652;28;20357;-80
2023/03/09 05:11:17;;;;;;;;;;;;;;;12.39;67.14;95213.34;4974678;28;19913;-81
2023/03/09 05:13:42;;;;;;;;;;;;;;;12.50;66.68;95217.22;4970024;28;19913;-80
2023/03/09 05:16:07;;;;;;;;;;;;;;;12.31;67.42;95213.03;5005965;28;19937;-83
2023/03/09 05:18:34;;;;;;;;;;;;;;;12.33;67.62;95228.38;5008093;28;19920;-80
2023/03/09 05:20:59;;;;;;;;;;;;;;;12.03;68.25;95217.72;4976139;28;19924;-80
2023/03/09 05:23:24;;;;;;;;;;;;;;;11.98;68.84;95231.66;4969782;28;19917;-81
2023/03/09 05:25:57;;;;;;;;;;;;;;;12.30;68.04;95229.00;5007569;28;20383;-79
2023/03/09 05:28:24;;;;;;;;;;;;;;;12.20;67.98;95231.88;4978418;28;19996;-79
2023/03/09 05:30:50;;;;;;;;;;;;;;;12.18;67.74;95227.75;5008012;28;19924;-80
2023/03/09 05:33:15;;;;;;;;;;;;;;;12.17;68.00;95243.69;5023574;28;19913;-80
2023/03/09 05:35:41;;;;;;;;;;;;;;;12.18;68.14;95243.41;4984066;28;20285;-80
2023/03/09 05:38:06;;;;;;;;;;;;;;;12.07;68.71;95247.34;5005309;28;20357;-80
2023/03/09 05:40:31;;;;;;;;;;;;;;;12.16;68.76;95245.50;5005098;28;19929;-79
2023/03/09 05:42:56;;;;;;;;;;;;;;;12.12;68.62;95239.38;4984378;28;20357;-80
2023/03/09 05:45:22;;;;;;;;;;;;;;;11.92;69.36;95253.69;4989114;28;19924;-82
2023/03/09 05:47:47;;;;;;;;;;;;;;;12.17;68.47;95252.28;4988712;28;20249;-80
2023/03/09 05:50:12;;;;;;;;;;;;;;;12.33;68.29;95265.69;4989738;28;20341;-79
2023/03/09 05:52:37;;;;;;;;;;;;;;;12.38;68.06;95269.25;5006996;28;19921;-81
2023/03/09 05:55:03;;;;;;;;;;;;;;;12.34;67.99;95266.47;5006441;28;20012;-80
2023/03/09 05:57:28;;;;;;;;;;;;;;;12.33;68.42;95275.38;4974012;28;19913;-81
2023/03/09 05:59:53;;;;;;;;;;;;;;;12.14;68.72;95258.09;5004941;28;20428;-82
2023/03/09 06:02:19;;;;;;;;;;;;;;;12.05;69.27;95272.19;5004331;28;19929;-80
2023/03/09 06:04:48;;;;;;;;;;;;;;;12.00;69.05;95275.69;5005715;28;20391;-81
2023/03/09 06:07:13;;;;;;;;;;;;;;;12.38;68.09;95288.28;4987249;28;20371;-80
2023/03/09 06:09:39;;;;;;;;;;;;;;;12.28;68.58;95284.09;5001702;28;19917;-80
2023/03/09 06:12:04;;;;;;;;;;;;;;;12.33;68.42;95291.00;4984935;28;19940;-80
2023/03/09 06:14:29;;;;;;;;;;;;;;;12.08;68.95;95292.44;4970561;28;19960;-80
2023/03/09 06:16:55;;;;;;;;;;;;;;;11.98;69.70;95291.63;4973003;28;20423;-82
2023/03/09 06:19:21;;;;;;;;;;;;;;;12.29;68.79;95295.31;4989529;28;19925;-80
2023/03/09 06:21:47;;;;;;;;;;;;;;;11.93;70.25;95304.81;4972891;28;20028;-81
2023/03/09 06:24:12;;;;;;;;;;;;;;;12.17;69.02;95314.13;5004950;28;19913;-82
2023/03/09 06:26:37;;;;;;;;;;;;;;;12.24;69.02;95308.50;4975626;28;19920;-79
2023/03/09 06:29:03;;;;;;;;;;;;;;;12.10;69.58;95319.03;4975773;28;19913;-80
2023/03/09 06:31:29;;;;;;;;;;;;;;;11.79;70.75;95323.09;4994059;28;19917;-81
2023/03/09 06:33:54;;;;;;;;;;;;;;;11.81;70.50;95325.41;5008859;28;19917;-81
2023/03/09 06:36:19;;;;;;;;;;;;;;;12.27;68.74;95331.34;4990790;28;19972;-81
2023/03/09 06:38:44;;;;;;;;;;;;;;;12.22;69.47;95334.09;4993187;28;19992;-81
2023/03/09 06:41:10;;;;;;;;;;;;;;;12.33;68.88;95340.59;5025323;28;19917;-81
2023/03/09 06:43:36;;;;;;;;;;;;;;;12.39;68.85;95339.41;4990364;28;20391;-80
2023/03/09 06:46:01;;;;;;;;;;;;;;;12.16;69.27;95344.66;4976856;28;19921;-81
2023/03/09 06:48:26;;;;;;;;;;;;;;;12.12;69.34;95338.50;5008179;28;20270;-81
2023/03/09 06:50:52;;;;;;;;;;;;;;;12.25;68.72;95341.31;4974030;28;19920;-82
2023/03/09 06:53:17;;;;;;;;;;;;;;;12.20;69.17;95357.09;5009997;28;20419;-81
2023/03/09 06:55:43;;;;;;;;;;;;;;;12.14;69.50;95356.47;4980182;28;19921;-82
2023/03/09 06:58:08;;;;;;;;;;;;;;;11.80;70.13;95355.91;4978412;28;19944;-83
2023/03/09 07:00:40;;;;;;;;;;;;;;;11.96;70.21;95371.22;4989546;28;20016;-82
2023/03/09 07:03:13;;;;;;;;;;;;;;;12.26;68.89;95379.41;5008477;28;19979;-82
2023/03/09 07:05:39;;;;;;;;;;;;;;;12.30;68.85;95391.56;4979953;28;19921;-82
2023/03/09 07:08:04;;;;;;;;;;;;;;;12.18;69.06;95384.28;4986062;28;19913;-83
2023/03/09 07:10:29;;;;;;;;;;;;;;;12.07;69.97;95393.41;5007154;28;19918;-82
2023/03/09 07:12:55;;;;;;;;;;;;;;;12.08;69.73;95396.78;4977777;28;20373;-82
2023/03/09 07:15:20;;;;;;;;;;;;;;;12.29;69.43;95404.91;4992626;28;20365;-81
2023/03/09 07:17:45;;;;;;;;;;;;;;;12.11;69.69;95410.00;4977947;28;19921;-83
2023/03/09 07:20:11;;;;;;;;;;;;;;;12.17;69.81;95411.44;4992289;28;19913;-82
2023/03/09 07:22:36;;;;;;;;;;;;;;;12.04;69.95;95424.53;4993511;28;19925;-80
2023/03/09 07:25:02;;;;;;;;;;;;;;;12.10;70.08;95426.75;4971384;28;20365;-81
2023/03/09 07:27:27;;;;;;;;;;;;;;;12.34;69.14;95429.03;4978130;28;19940;-84
2023/03/09 07:29:52;;;;;;;;;;;;;;;12.04;69.96;95427.91;5003794;28;19960;-82
2023/03/09 07:32:18;;;;;;;;;;;;;;;12.16;69.50;95433.34;4976901;28;20443;-81
2023/03/09 07:34:43;;;;;;;;;;;;;;;12.17;69.64;95434.16;4999761;28;19917;-81
2023/03/09 07:37:09;;;;;;;;;;;;;;;11.96;70.27;95428.59;4981643;28;19929;-82
2023/03/09 07:39:35;;;;;;;;;;;;;;;12.32;69.34;95446.03;4991278;28;19920;-80
2023/03/09 07:42:00;;;;;;;;;;;;;;;12.34;69.26;95454.38;4988834;28;19926;-80
2023/03/09 07:44:26;;;;;;;;;;;;;;;12.29;68.77;95451.88;4975854;28;20455;-82
2023/03/09 07:46:52;;;;;;;;;;;;;;;12.44;68.86;95458.56;4989547;28;19917;-81
2023/03/09 07:49:18;;;;;;;;;;;;;;;12.31;69.43;95460.94;5008922;28;20297;-82
2023/03/09 07:51:43;;;;;;;;;;;;;;;12.51;68.66;95472.75;4990364;28;19917;-80
2023/03/09 07:54:09;;;;;;;;;;;;;;;12.26;69.55;95478.56;5003873;28;20285;-83
2023/03/09 07:56:35;;;;;;;;;;;;;;;12.47;69.00;95479.63;4974833;28;20191;-80
2023/03/09 07:59:00;;;;;;;;;;;;;;;12.51;68.45;95488.41;5007385;28;19917;-81
2023/03/09 08:01:27;;;;;;;;;;;;;;;12.51;68.44;95480.56;5008605;28;19921;-82
2023/03/09 08:03:52;;;;;;;;;;;;;;;12.46;68.81;95487.75;4991165;28;19972;-80
2023/03/09 08:06:18;;;;;;;;;;;;;;;12.39;69.16;95488.19;4990433;28;20363;-82
2023/03/09 08:08:44;;;;;;;;;;;;;;;12.25;69.74;95492.66;4991741;28;19921;-83
2023/03/09 08:11:10;;;;;;;;;;;;;;;12.31;69.38;95486.28;4992647;28;20036;-80
2023/03/09 08:13:35;;;;;;;;;;;;;;;12.35;69.32;95489.81;4998514;28;19917;-81
2023/03/09 08:16:02;;;;;;;;;;;;;;;12.21;70.25;95508.16;4988092;28;19914;-81
2023/03/09 08:18:27;;;;;;;;;;;;;;;12.18;70.34;95501.69;5005091;28;19948;-81
2023/03/09 08:20:53;;;;;;;;;;;;;;;12.36;69.51;95507.03;5006053;28;20357;-82
2023/03/09 08:23:18;;;;;;;;;;;;;;;12.47;69.26;95510.94;4991403;28;20096;-82
2023/03/09 08:25:44;;;;;;;;;;;;;;;12.26;69.91;95508.03;4988373;28;19913;-81
2023/03/09 08:28:10;;;;;;;;;;;;;;;12.58;68.72;95515.91;4984096;28;19913;-82
2023/03/09 08:30:38;;;;;;;;;;;;;;;12.74;68.31;95528.31;5001166;28;20447;-81
2023/03/09 08:33:03;;;;;;;;;;;;;;;12.66;68.74;95528.25;4973989;28;20412;-81
2023/03/09 08:35:30;;;;;;;;;;;;;;;12.73;68.59;95533.84;4973208;28;20008;-80
2023/03/09 08:37:55;;;;;;;;;;;;;;;12.61;68.49;95531.78;4989406;28;19917;-83
2023/03/09 08:40:20;;;;;;;;;;;;;;;12.51;68.71;95524.94;4989023;28;19928;-80
2023/03/09 08:42:46;;;;;;;;;;;;;;;12.70;68.93;95543.03;4986840;28;20230;-81
2023/03/09 08:45:11;;;;;;;;;;;;;;;12.51;69.06;95537.25;4992567;28;19913;-85
2023/03/09 08:47:40;;;;;;;;;;;;;;;12.72;68.76;95548.72;4990982;28;19948;-82
2023/03/09 08:50:06;;;;;;;;;;;;;;;12.50;69.33;95551.34;4992151;28;19920;-80
2023/03/09 08:52:34;;;;;;;;;;;;;;;12.49;69.57;95549.78;4992175;28;20380;-80
2023/03/09 08:55:00;;;;;;;;;;;;;;;12.49;69.61;95566.25;4975797;28;19921;-80
2023/03/09 08:57:26;;;;;;;;;;;;;;;12.63;69.21;95547.13;5008849;28;20384;-80
2023/03/09 08:59:52;;;;;;;;;;;;;;;12.73;68.93;95555.50;5007507;28;19913;-82
2023/03/09 09:02:17;;;;;;;;;;;;;;;12.66;68.85;95565.59;5006212;28;20387;-80
2023/03/09 09:04:43;;;;;;;;;;;;;;;12.73;68.57;95560.72;5008852;28;19914;-81
2023/03/09 09:07:09;;;;;;;;;;;;;;;12.74;68.41;95566.72;4991372;28;19909;-80
2023/03/09 09:09:34;;;;;;;;;;;;;;;12.80;68.22;95568.16;4992200;28;19920;-82
2023/03/09 09:11:59;;;;;;;;;;;;;;;12.57;69.17;95574.44;5008593;28;19936;-82
2023/03/09 09:14:25;;;;;;;;;;;;;;;12.65;68.87;95571.13;4997635;28;19920;-82
2023/03/09 09:16:50;;;;;;;;;;;;;;;12.69;69.13;95580.66;4992225;28;19914;-80
2023/03/09 09:19:16;;;;;;;;;;;;;;;12.54;69.13;95578.41;4974658;28;20369;-81
2023/03/09 09:21:41;;;;;;;;;;;;;;;12.68;68.77;95580.94;4986310;28;20426;-80
2023/03/09 09:24:07;;;;;;;;;;;;;;;12.79;68.63;95579.66;4974650;28;19921;-79
2023/03/09 09:26:32;;;;;;;;;;;;;;;12.92;68.28;95589.28;4992225;28;19917;-81
2023/03/09 09:29:00;;;;;;;;;;;;;;;12.79;69.21;95584.13;4991719;28;20369;-83
2023/03/09 09:31:26;;;;;;;;;;;;;;;12.93;68.25;95596.03;5007725;28;19917;-80
2023/03/09 09:33:51;;;;;;;;;;;;;;;12.83;68.77;95600.72;5006627;28;19920;-81
2023/03/09 09:36:18;;;;;;;;;;;;;;;12.98;67.99;95592.53;4970820;28;20404;-79
2023/03/09 09:38:43;;;;;;;;;;;;;;;13.14;67.80;95602.59;4988935;28;19913;-81
2023/03/09 09:41:19;;;;;;;;;;;;;;;13.15;67.33;95604.94;4989490;28;19940;-80
2023/03/09 09:43:45;;;;;;;;;;;;;;;12.85;68.41;95611.66;4975304;28;19913;-83
2023/03/09 09:46:11;;;;;;;;;;;;;;;13.09;67.68;95611.34;4974321;28;20008;-80
2023/03/09 09:48:36;;;;;;;;;;;;;;;13.24;67.32;95618.03;5013134;28;20004;-80
2023/03/09 09:51:06;;;;;;;;;;;;;;;12.91;67.81;95621.69;4991270;28;20036;-82
2023/03/09 09:53:34;;;;;;;;;;;;;;;12.82;68.56;95627.94;5008224;28;19964;-81
2023/03/09 09:55:59;;;;;;;;;;;;;;;13.11;67.47;95625.66;5012137;28;19960;-80
2023/03/09 09:58:30;;;;;;;;;;;;;;;13.16;67.28;95624.78;4988136;28;19968;-80
2023/03/09 10:00:56;;;;;;;;;;;;;;;13.35;67.29;95631.66;4974203;28;20265;-80
2023/03/09 10:03:23;;;;;;;;;;;;;;;13.37;67.20;95635.53;4988052;28;20420;-79
2023/03/09 10:05:48;;;;;;;;;;;;;;;12.97;68.61;95632.81;4987355;28;19913;-80
2023/03/09 10:08:26;;;;;;;;;;;;;;;13.04;68.04;95642.81;4998389;28;20452;-79
2023/03/09 10:10:51;;;;;;;;;;;;;;;13.19;67.70;95633.84;5006545;28;19913;-83
2023/03/09 10:13:38;;;;;;;;;;;;;;;13.21;68.58;95642.16;4971575;28;20446;-81
2023/03/09 10:16:05;;;;;;;;;;;;;;;13.22;68.55;95643.72;4990390;28;19921;-81
2023/03/09 10:18:34;;;;;;;;;;;;;;;13.35;68.19;95649.94;4984090;28;19960;-82
2023/03/09 10:21:00;;;;;;;;;;;;;;;13.21;68.22;95642.16;4990246;28;19924;-80
2023/03/09 10:23:32;;;;;;;;;;;;;;;13.41;67.98;95646.16;4985198;28;19913;-80
2023/03/09 10:26:00;;;;;;;;;;;;;;;13.24;68.56;95654.63;5005936;28;19913;-80
2023/03/09 10:28:27;;;;;;;;;;;;;;;13.09;68.33;95660.97;4971223;28;20295;-80
2023/03/09 10:31:01;;;;;;;;;;;;;;;13.26;68.03;95670.78;4974433;28;19913;-81
2023/03/09 10:33:27;;;;;;;;;;;;;;;13.37;68.20;95666.13;4970780;28;19996;-80
2023/03/09 10:36:10;;;;;;;;;;;;;;;13.13;69.44;95671.63;5005312;28;20013;-84
2023/03/09 10:38:36;;;;;;;;;;;;;;;13.29;68.49;95681.41;4973807;28;20304;-84
2023/03/09 10:41:02;;;;;;;;;;;;;;;13.35;68.84;95683.94;4990422;28;19924;-81
2023/03/09 10:43:31;;;;;;;;;;;;;;;13.37;69.04;95682.56;4973616;28;19918;-82
2023/03/09 10:46:12;;;;;;;;;;;;;;;13.47;68.79;95676.34;4964224;28;19913;-82
2023/03/09 10:48:37;;;;;;;;;;;;;;;13.53;68.51;95680.34;5018537;28;19917;-82
2023/03/09 10:51:03;;;;;;;;;;;;;;;13.59;68.19;95683.59;4990833;28;19913;-80
2023/03/09 10:53:41;;;;;;;;;;;;;;;13.26;69.18;95689.88;4991605;28;20304;-81
2023/03/09 10:56:13;;;;;;;;;;;;;;;13.47;68.56;95690.19;5001552;28;19970;-83
2023/03/09 10:58:38;;;;;;;;;;;;;;;13.78;67.53;95696.50;4987537;28;19917;-81
2023/03/09 11:01:04;;;;;;;;;;;;;;;13.42;68.60;95705.22;4987975;28;19937;-84
2023/03/09 11:03:31;;;;;;;;;;;;;;;13.77;67.99;95700.16;4989974;28;20319;-81
2023/03/09 11:06:26;;;;;;;;;;;;;;;13.44;68.73;95705.69;5004826;28;20020;-82
2023/03/09 11:09:15;;;;;;;;;;;;;;;13.82;67.43;95713.13;4986113;28;19937;-83
2023/03/09 11:11:41;;;;;;;;;;;;;;;13.98;67.01;95716.91;4999662;28;19967;-84
2023/03/09 11:14:23;;;;;;;;;;;;;;;13.94;67.49;95713.31;4994157;28;19924;-82
2023/03/09 11:16:49;;;;;;;;;;;;;;;13.96;67.43;95718.25;5009902;28;19914;-81
2023/03/09 11:19:15;;;;;;;;;;;;;;;13.78;68.79;95720.03;4992066;28;19914;-80
2023/03/09 11:21:48;;;;;;;;;;;;;;;13.94;67.35;95710.72;4974706;28;19918;-83
2023/03/09 11:24:14;;;;;;;;;;;;;;;13.75;67.86;95720.63;4976201;28;19936;-80
2023/03/09 11:26:40;;;;;;;;;;;;;;;14.01;66.98;95720.75;4990724;28;19914;-81
2023/03/09 11:29:07;;;;;;;;;;;;;;;14.10;66.77;95723.41;5008311;28;19914;-82
2023/03/09 11:31:42;;;;;;;;;;;;;;;14.27;67.10;95728.69;5010818;28;19913;-81
2023/03/09 11:34:12;;;;;;;;;;;;;;;14.28;65.95;95727.63;5006221;28;19988;-81
2023/03/09 11:36:43;;;;;;;;;;;;;;;14.28;65.76;95732.09;4994463;28;19913;-80
2023/03/09 11:39:28;;;;;;;;;;;;;;;13.98;67.05;95723.97;4977757;28;20293;-80
2023/03/09 11:41:54;;;;;;;;;;;;;;;14.08;67.01;95717.69;4993100;28;19951;-80
2023/03/09 11:44:22;;;;;;;;;;;;;;;14.17;67.12;95718.47;4976537;28;19923;-81
2023/03/09 11:46:47;;;;;;;;;;;;;;;14.00;67.67;95719.97;5009479;28;19924;-81
2023/03/09 11:49:23;;;;;;;;;;;;;;;14.07;67.14;95709.09;4975039;28;19913;-81
2023/03/09 11:51:49;;;;;;;;;;;;;;;14.33;67.79;95717.00;5006487;28;19921;-81
2023/03/09 11:54:30;;;;;;;;;;;;;;;14.52;67.70;95716.75;5012448;28;19914;-79
2023/03/09 11:56:55;;;;;;;;;;;;;;;14.28;69.34;95713.78;5006822;28;20242;-82
2023/03/09 11:59:40;;;;;;;;;;;;;;;14.35;69.21;95714.84;5009258;28;19944;-81
2023/03/09 12:02:13;;;;;;;;;;;;;;;14.28;68.41;95714.53;5008162;28;19976;-80
2023/03/09 12:04:38;;;;;;;;;;;;;;;14.45;67.72;95721.66;5005137;28;19920;-81
2023/03/09 12:07:11;;;;;;;;;;;;;;;14.54;66.24;95716.44;4999053;28;20460;-83
2023/03/09 12:09:36;;;;;;;;;;;;;;;14.83;66.17;95723.00;4992661;28;19963;-80
2023/03/09 12:12:23;;;;;;;;;;;;;;;14.59;66.33;95717.09;5008261;28;19953;-80
2023/03/09 12:14:49;;;;;;;;;;;;;;;14.26;67.48;95711.44;4987475;28;20431;-81
2023/03/09 12:17:15;;;;;;;;;;;;;;;13.69;68.97;95712.13;4976287;28;20189;-80
2023/03/09 12:19:44;;;;;;;;;;;;;;;14.30;67.42;95715.00;5008164;28;19913;-82
2023/03/09 12:22:16;;;;;;;;;;;;;;;14.50;67.28;95710.28;4973091;28;19917;-81
2023/03/09 12:24:43;;;;;;;;;;;;;;;14.78;67.73;95692.47;4981474;28;19957;-82
2023/03/09 12:27:16;;;;;;;;;;;;;;;14.82;67.18;95705.72;5008155;28;19914;-81
2023/03/09 12:29:51;;;;;;;;;;;;;;;14.74;67.23;95694.16;4975928;28;19997;-81
2023/03/09 12:32:16;;;;;;;;;;;;;;;14.62;68.04;95700.00;4990401;28;19913;-82
2023/03/09 12:34:42;;;;;;;;;;;;;;;14.68;67.14;95711.09;5004310;28;20395;-81
2023/03/09 12:37:26;;;;;;;;;;;;;;;14.91;67.27;95709.13;5008048;28;19917;-80
2023/03/09 12:39:57;;;;;;;;;;;;;;;15.23;66.17;95704.47;5008595;28;19924;-80
2023/03/09 12:42:36;;;;;;;;;;;;;;;15.21;66.14;95714.50;4979461;28;19921;-80
2023/03/09 12:45:10;;;;;;;;;;;;;;;15.05;64.56;95704.50;4975616;28;19924;-82